sensor_id;sensor_type;location;lat;lon;timestamp;P1;durP1;ratioP1;P2;durP2;ratioP2
27505;SDS011;14939;43.596;1.320;2022-10-31T00:00:59;30.02;;;10.27;;
27505;SDS011;14939;43.596;1.320;2022-10-31T00:03:25;23.27;;;10.27;;
27505;SDS011;14939;43.596;1.320;2022-10-31T00:05:51;23.45;;;9.73;;
27505;SDS011;14939;43.596;1.320;2022-10-31T00:08:17;27.80;;;9.98;;
27505;SDS011;14939;43.596;1.320;2022-10-31T00:10:44;25.17;;;9.65;;
27505;SDS011;14939;43.596;1.320;2022-10-31T00:13:11;29.65;;;10.52;;
27505;SDS011;14939;43.596;1.320;2022-10-31T00:15:38;30.75;;;9.95;;
27505;SDS011;14939;43.596;1.320;2022-10-31T00:18:05;24.85;;;10.05;;
27505;SDS011;14939;43.596;1.320;2022-10-31T00:20:31;33.85;;;10.30;;
27505;SDS011;14939;43.596;1.320;2022-10-31T00:22:58;33.60;;;11.13;;
27505;SDS011;14939;43.596;1.320;2022-10-31T00:25:27;32.65;;;11.27;;
27505;SDS011;14939;43.596;1.320;2022-10-31T00:27:54;22.42;;;10.60;;
27505;SDS011;14939;43.596;1.320;2022-10-31T00:30:20;25.80;;;10.30;;
27505;SDS011;14939;43.596;1.320;2022-10-31T00:32:46;26.00;;;10.60;;
27505;SDS011;14939;43.596;1.320;2022-10-31T00:35:11;35.65;;;10.40;;
27505;SDS011;14939;43.596;1.320;2022-10-31T00:37:37;29.25;;;10.82;;
27505;SDS011;14939;43.596;1.320;2022-10-31T00:40:03;27.65;;;9.93;;
27505;SDS011;14939;43.596;1.320;2022-10-31T00:42:29;31.85;;;10.75;;
27505;SDS011;14939;43.596;1.320;2022-10-31T00:44:54;29.85;;;10.35;;
27505;SDS011;14939;43.596;1.320;2022-10-31T00:47:20;27.33;;;10.10;;
27505;SDS011;14939;43.596;1.320;2022-10-31T00:49:46;26.67;;;10.63;;
27505;SDS011;14939;43.596;1.320;2022-10-31T00:52:11;31.48;;;11.07;;
27505;SDS011;14939;43.596;1.320;2022-10-31T00:54:37;28.10;;;11.25;;
27505;SDS011;14939;43.596;1.320;2022-10-31T00:57:02;24.52;;;11.30;;
27505;SDS011;14939;43.596;1.320;2022-10-31T00:59:28;27.63;;;10.60;;
27505;SDS011;14939;43.596;1.320;2022-10-31T01:01:54;29.25;;;10.80;;
27505;SDS011;14939;43.596;1.320;2022-10-31T01:04:19;29.75;;;12.30;;
27505;SDS011;14939;43.596;1.320;2022-10-31T01:06:45;29.25;;;11.65;;
27505;SDS011;14939;43.596;1.320;2022-10-31T01:09:11;29.60;;;11.63;;
27505;SDS011;14939;43.596;1.320;2022-10-31T01:11:36;33.10;;;11.77;;
27505;SDS011;14939;43.596;1.320;2022-10-31T01:14:02;27.95;;;12.32;;
27505;SDS011;14939;43.596;1.320;2022-10-31T01:16:28;28.08;;;12.63;;
27505;SDS011;14939;43.596;1.320;2022-10-31T01:18:56;31.70;;;12.52;;
27505;SDS011;14939;43.596;1.320;2022-10-31T01:21:23;29.52;;;12.18;;
27505;SDS011;14939;43.596;1.320;2022-10-31T01:23:50;35.63;;;13.15;;
27505;SDS011;14939;43.596;1.320;2022-10-31T01:26:21;28.73;;;12.18;;
27505;SDS011;14939;43.596;1.320;2022-10-31T01:28:52;32.92;;;12.38;;
27505;SDS011;14939;43.596;1.320;2022-10-31T01:31:20;34.38;;;12.65;;
27505;SDS011;14939;43.596;1.320;2022-10-31T01:33:47;23.25;;;12.07;;
27505;SDS011;14939;43.596;1.320;2022-10-31T01:36:15;23.38;;;11.68;;
27505;SDS011;14939;43.596;1.320;2022-10-31T01:38:41;31.40;;;12.20;;
27505;SDS011;14939;43.596;1.320;2022-10-31T01:41:08;28.73;;;12.05;;
27505;SDS011;14939;43.596;1.320;2022-10-31T01:43:42;24.58;;;11.00;;
27505;SDS011;14939;43.596;1.320;2022-10-31T01:46:08;27.05;;;11.15;;
27505;SDS011;14939;43.596;1.320;2022-10-31T01:48:34;30.83;;;11.70;;
27505;SDS011;14939;43.596;1.320;2022-10-31T01:51:00;29.42;;;11.13;;
27505;SDS011;14939;43.596;1.320;2022-10-31T01:53:28;28.33;;;10.57;;
27505;SDS011;14939;43.596;1.320;2022-10-31T01:55:53;28.58;;;10.80;;
27505;SDS011;14939;43.596;1.320;2022-10-31T01:58:20;30.15;;;10.55;;
27505;SDS011;14939;43.596;1.320;2022-10-31T02:00:51;27.95;;;10.32;;
27505;SDS011;14939;43.596;1.320;2022-10-31T02:03:18;28.20;;;9.73;;
27505;SDS011;14939;43.596;1.320;2022-10-31T02:05:46;29.08;;;10.40;;
27505;SDS011;14939;43.596;1.320;2022-10-31T02:10:42;22.27;;;10.45;;
27505;SDS011;14939;43.596;1.320;2022-10-31T02:13:08;25.00;;;9.70;;
27505;SDS011;14939;43.596;1.320;2022-10-31T02:15:36;28.98;;;10.30;;
27505;SDS011;14939;43.596;1.320;2022-10-31T02:18:03;25.85;;;10.43;;
27505;SDS011;14939;43.596;1.320;2022-10-31T02:20:35;23.00;;;10.18;;
27505;SDS011;14939;43.596;1.320;2022-10-31T02:27:03;27.08;;;10.90;;
27505;SDS011;14939;43.596;1.320;2022-10-31T02:37:18;31.17;;;11.15;;
27505;SDS011;14939;43.596;1.320;2022-10-31T02:47:50;32.17;;;11.85;;
27505;SDS011;14939;43.596;1.320;2022-10-31T02:50:26;26.77;;;11.50;;
27505;SDS011;14939;43.596;1.320;2022-10-31T02:52:54;26.33;;;11.55;;
27505;SDS011;14939;43.596;1.320;2022-10-31T02:57:53;27.70;;;11.57;;
27505;SDS011;14939;43.596;1.320;2022-10-31T03:06:14;27.95;;;12.18;;
27505;SDS011;14939;43.596;1.320;2022-10-31T03:08:56;30.58;;;12.05;;
27505;SDS011;14939;43.596;1.320;2022-10-31T03:11:51;27.30;;;11.88;;
27505;SDS011;14939;43.596;1.320;2022-10-31T03:14:42;32.50;;;12.68;;
27505;SDS011;14939;43.596;1.320;2022-10-31T03:17:31;32.42;;;13.20;;
27505;SDS011;14939;43.596;1.320;2022-10-31T03:20:01;28.63;;;12.32;;
27505;SDS011;14939;43.596;1.320;2022-10-31T03:22:31;29.30;;;12.15;;
27505;SDS011;14939;43.596;1.320;2022-10-31T03:24:58;31.95;;;12.80;;
27505;SDS011;14939;43.596;1.320;2022-10-31T03:27:27;34.05;;;12.77;;
27505;SDS011;14939;43.596;1.320;2022-10-31T03:29:57;30.50;;;12.35;;
27505;SDS011;14939;43.596;1.320;2022-10-31T03:32:30;33.88;;;13.57;;
27505;SDS011;14939;43.596;1.320;2022-10-31T03:35:03;34.47;;;12.52;;
27505;SDS011;14939;43.596;1.320;2022-10-31T03:37:32;29.08;;;12.50;;
27505;SDS011;14939;43.596;1.320;2022-10-31T03:40:00;29.85;;;12.85;;
27505;SDS011;14939;43.596;1.320;2022-10-31T03:42:30;31.98;;;12.85;;
27505;SDS011;14939;43.596;1.320;2022-10-31T03:44:59;31.35;;;13.20;;
27505;SDS011;14939;43.596;1.320;2022-10-31T03:47:42;26.88;;;12.57;;
27505;SDS011;14939;43.596;1.320;2022-10-31T03:50:09;38.95;;;13.00;;
27505;SDS011;14939;43.596;1.320;2022-10-31T03:53:00;31.00;;;13.05;;
27505;SDS011;14939;43.596;1.320;2022-10-31T03:58:20;29.92;;;13.27;;
27505;SDS011;14939;43.596;1.320;2022-10-31T04:00:51;33.17;;;13.63;;
27505;SDS011;14939;43.596;1.320;2022-10-31T04:03:24;28.60;;;13.07;;
27505;SDS011;14939;43.596;1.320;2022-10-31T04:05:52;37.30;;;14.57;;
27505;SDS011;14939;43.596;1.320;2022-10-31T04:08:23;33.33;;;12.95;;
27505;SDS011;14939;43.596;1.320;2022-10-31T04:10:51;31.70;;;13.45;;
27505;SDS011;14939;43.596;1.320;2022-10-31T04:13:20;37.60;;;13.98;;
27505;SDS011;14939;43.596;1.320;2022-10-31T04:15:55;31.60;;;13.63;;
27505;SDS011;14939;43.596;1.320;2022-10-31T04:18:24;30.85;;;12.80;;
27505;SDS011;14939;43.596;1.320;2022-10-31T04:20:59;27.75;;;12.85;;
27505;SDS011;14939;43.596;1.320;2022-10-31T04:23:26;34.45;;;13.90;;
27505;SDS011;14939;43.596;1.320;2022-10-31T04:25:54;33.72;;;13.18;;
27505;SDS011;14939;43.596;1.320;2022-10-31T04:28:20;32.95;;;13.45;;
27505;SDS011;14939;43.596;1.320;2022-10-31T04:30:46;31.42;;;13.15;;
27505;SDS011;14939;43.596;1.320;2022-10-31T04:33:11;27.17;;;12.80;;
27505;SDS011;14939;43.596;1.320;2022-10-31T04:35:37;36.30;;;12.80;;
27505;SDS011;14939;43.596;1.320;2022-10-31T04:38:03;35.45;;;13.98;;
27505;SDS011;14939;43.596;1.320;2022-10-31T04:40:28;33.95;;;13.55;;
27505;SDS011;14939;43.596;1.320;2022-10-31T04:42:54;35.08;;;12.25;;
27505;SDS011;14939;43.596;1.320;2022-10-31T04:45:19;32.90;;;13.43;;
27505;SDS011;14939;43.596;1.320;2022-10-31T04:47:45;32.75;;;13.13;;
27505;SDS011;14939;43.596;1.320;2022-10-31T04:50:11;29.27;;;12.77;;
27505;SDS011;14939;43.596;1.320;2022-10-31T04:52:43;31.98;;;12.98;;
27505;SDS011;14939;43.596;1.320;2022-10-31T04:55:10;32.88;;;13.43;;
27505;SDS011;14939;43.596;1.320;2022-10-31T04:57:46;28.05;;;12.23;;
27505;SDS011;14939;43.596;1.320;2022-10-31T05:00:14;31.50;;;13.02;;
27505;SDS011;14939;43.596;1.320;2022-10-31T05:02:44;28.15;;;12.70;;
27505;SDS011;14939;43.596;1.320;2022-10-31T05:05:15;33.13;;;12.70;;
27505;SDS011;14939;43.596;1.320;2022-10-31T05:07:42;38.25;;;13.18;;
27505;SDS011;14939;43.596;1.320;2022-10-31T05:10:10;40.88;;;13.15;;
27505;SDS011;14939;43.596;1.320;2022-10-31T05:12:37;35.30;;;13.65;;
27505;SDS011;14939;43.596;1.320;2022-10-31T05:15:04;33.17;;;13.48;;
27505;SDS011;14939;43.596;1.320;2022-10-31T05:17:30;36.10;;;13.95;;
27505;SDS011;14939;43.596;1.320;2022-10-31T05:19:57;39.97;;;13.82;;
27505;SDS011;14939;43.596;1.320;2022-10-31T05:22:22;31.42;;;13.95;;
27505;SDS011;14939;43.596;1.320;2022-10-31T05:24:48;33.05;;;14.75;;
27505;SDS011;14939;43.596;1.320;2022-10-31T05:27:13;33.80;;;14.07;;
27505;SDS011;14939;43.596;1.320;2022-10-31T05:29:39;33.92;;;13.98;;
27505;SDS011;14939;43.596;1.320;2022-10-31T05:32:05;32.58;;;14.27;;
27505;SDS011;14939;43.596;1.320;2022-10-31T05:34:30;39.08;;;16.20;;
27505;SDS011;14939;43.596;1.320;2022-10-31T05:36:56;33.83;;;14.60;;
27505;SDS011;14939;43.596;1.320;2022-10-31T05:39:22;35.75;;;14.82;;
27505;SDS011;14939;43.596;1.320;2022-10-31T05:41:47;31.75;;;14.07;;
27505;SDS011;14939;43.596;1.320;2022-10-31T05:44:13;34.20;;;13.75;;
27505;SDS011;14939;43.596;1.320;2022-10-31T05:46:38;31.05;;;14.32;;
27505;SDS011;14939;43.596;1.320;2022-10-31T05:49:04;36.38;;;14.80;;
27505;SDS011;14939;43.596;1.320;2022-10-31T05:51:30;35.97;;;15.57;;
27505;SDS011;14939;43.596;1.320;2022-10-31T05:53:55;36.08;;;15.23;;
27505;SDS011;14939;43.596;1.320;2022-10-31T05:56:21;30.77;;;15.48;;
27505;SDS011;14939;43.596;1.320;2022-10-31T05:58:46;31.90;;;14.13;;
27505;SDS011;14939;43.596;1.320;2022-10-31T06:01:12;33.15;;;15.20;;
27505;SDS011;14939;43.596;1.320;2022-10-31T06:03:38;35.75;;;14.65;;
27505;SDS011;14939;43.596;1.320;2022-10-31T06:06:03;30.67;;;14.38;;
27505;SDS011;14939;43.596;1.320;2022-10-31T06:08:29;32.65;;;13.75;;
27505;SDS011;14939;43.596;1.320;2022-10-31T06:10:55;34.63;;;14.10;;
27505;SDS011;14939;43.596;1.320;2022-10-31T06:13:20;36.28;;;13.65;;
27505;SDS011;14939;43.596;1.320;2022-10-31T06:15:46;32.88;;;13.93;;
27505;SDS011;14939;43.596;1.320;2022-10-31T06:18:12;34.47;;;13.65;;
27505;SDS011;14939;43.596;1.320;2022-10-31T06:20:37;29.92;;;13.98;;
27505;SDS011;14939;43.596;1.320;2022-10-31T06:23:03;31.95;;;13.70;;
27505;SDS011;14939;43.596;1.320;2022-10-31T06:25:29;27.33;;;13.25;;
27505;SDS011;14939;43.596;1.320;2022-10-31T06:27:55;28.23;;;13.45;;
27505;SDS011;14939;43.596;1.320;2022-10-31T06:30:21;33.85;;;14.02;;
27505;SDS011;14939;43.596;1.320;2022-10-31T06:32:47;33.05;;;14.55;;
27505;SDS011;14939;43.596;1.320;2022-10-31T06:35:12;25.83;;;13.23;;
27505;SDS011;14939;43.596;1.320;2022-10-31T06:37:38;25.92;;;13.10;;
27505;SDS011;14939;43.596;1.320;2022-10-31T06:40:04;33.38;;;13.45;;
27505;SDS011;14939;43.596;1.320;2022-10-31T06:42:30;29.67;;;13.75;;
27505;SDS011;14939;43.596;1.320;2022-10-31T06:44:55;29.75;;;14.20;;
27505;SDS011;14939;43.596;1.320;2022-10-31T06:47:21;32.45;;;13.85;;
27505;SDS011;14939;43.596;1.320;2022-10-31T06:49:47;27.65;;;13.98;;
27505;SDS011;14939;43.596;1.320;2022-10-31T06:52:12;28.33;;;14.13;;
27505;SDS011;14939;43.596;1.320;2022-10-31T06:54:38;36.38;;;14.02;;
27505;SDS011;14939;43.596;1.320;2022-10-31T06:57:04;33.75;;;14.18;;
27505;SDS011;14939;43.596;1.320;2022-10-31T06:59:29;32.17;;;14.85;;
27505;SDS011;14939;43.596;1.320;2022-10-31T07:01:57;26.38;;;14.55;;
27505;SDS011;14939;43.596;1.320;2022-10-31T07:04:22;27.80;;;14.40;;
27505;SDS011;14939;43.596;1.320;2022-10-31T07:06:50;31.38;;;14.50;;
27505;SDS011;14939;43.596;1.320;2022-10-31T07:09:17;25.50;;;14.00;;
27505;SDS011;14939;43.596;1.320;2022-10-31T07:11:42;33.47;;;13.63;;
27505;SDS011;14939;43.596;1.320;2022-10-31T07:14:08;24.60;;;13.32;;
27505;SDS011;14939;43.596;1.320;2022-10-31T07:16:34;28.77;;;12.73;;
27505;SDS011;14939;43.596;1.320;2022-10-31T07:18:59;31.95;;;13.65;;
27505;SDS011;14939;43.596;1.320;2022-10-31T07:21:25;26.73;;;12.68;;
27505;SDS011;14939;43.596;1.320;2022-10-31T07:23:50;22.75;;;13.63;;
27505;SDS011;14939;43.596;1.320;2022-10-31T07:26:16;27.73;;;13.23;;
27505;SDS011;14939;43.596;1.320;2022-10-31T07:28:42;28.50;;;13.07;;
27505;SDS011;14939;43.596;1.320;2022-10-31T07:31:07;34.03;;;13.48;;
27505;SDS011;14939;43.596;1.320;2022-10-31T07:33:33;24.58;;;13.10;;
27505;SDS011;14939;43.596;1.320;2022-10-31T07:35:59;30.85;;;12.57;;
27505;SDS011;14939;43.596;1.320;2022-10-31T07:38:25;28.90;;;12.82;;
27505;SDS011;14939;43.596;1.320;2022-10-31T07:40:51;29.30;;;13.02;;
27505;SDS011;14939;43.596;1.320;2022-10-31T07:43:20;31.65;;;13.02;;
27505;SDS011;14939;43.596;1.320;2022-10-31T07:45:51;28.90;;;12.90;;
27505;SDS011;14939;43.596;1.320;2022-10-31T07:48:17;25.58;;;12.18;;
27505;SDS011;14939;43.596;1.320;2022-10-31T07:50:43;32.28;;;12.75;;
27505;SDS011;14939;43.596;1.320;2022-10-31T07:53:10;29.50;;;13.05;;
27505;SDS011;14939;43.596;1.320;2022-10-31T07:55:37;26.77;;;12.13;;
27505;SDS011;14939;43.596;1.320;2022-10-31T07:58:03;28.65;;;13.43;;
27505;SDS011;14939;43.596;1.320;2022-10-31T08:00:34;27.48;;;12.85;;
27505;SDS011;14939;43.596;1.320;2022-10-31T08:03:01;28.08;;;12.13;;
27505;SDS011;14939;43.596;1.320;2022-10-31T08:05:28;28.83;;;11.65;;
27505;SDS011;14939;43.596;1.320;2022-10-31T08:07:55;28.60;;;12.30;;
27505;SDS011;14939;43.596;1.320;2022-10-31T08:10:21;25.60;;;11.63;;
27505;SDS011;14939;43.596;1.320;2022-10-31T08:12:54;29.42;;;11.10;;
27505;SDS011;14939;43.596;1.320;2022-10-31T08:15:24;30.50;;;10.98;;
27505;SDS011;14939;43.596;1.320;2022-10-31T08:17:50;34.53;;;11.30;;
27505;SDS011;14939;43.596;1.320;2022-10-31T08:20:16;27.17;;;10.45;;
27505;SDS011;14939;43.596;1.320;2022-10-31T08:22:41;27.63;;;11.80;;
27505;SDS011;14939;43.596;1.320;2022-10-31T08:25:07;29.48;;;10.80;;
27505;SDS011;14939;43.596;1.320;2022-10-31T08:27:33;27.27;;;10.32;;
27505;SDS011;14939;43.596;1.320;2022-10-31T08:29:59;27.17;;;10.48;;
27505;SDS011;14939;43.596;1.320;2022-10-31T08:32:25;29.65;;;10.60;;
27505;SDS011;14939;43.596;1.320;2022-10-31T08:34:50;30.88;;;9.68;;
27505;SDS011;14939;43.596;1.320;2022-10-31T08:37:16;32.55;;;10.10;;
27505;SDS011;14939;43.596;1.320;2022-10-31T08:39:45;28.85;;;9.35;;
27505;SDS011;14939;43.596;1.320;2022-10-31T08:42:11;31.42;;;10.45;;
27505;SDS011;14939;43.596;1.320;2022-10-31T08:44:38;29.55;;;9.65;;
27505;SDS011;14939;43.596;1.320;2022-10-31T08:47:03;27.95;;;9.60;;
27505;SDS011;14939;43.596;1.320;2022-10-31T08:49:29;25.50;;;8.93;;
27505;SDS011;14939;43.596;1.320;2022-10-31T08:51:54;22.92;;;9.23;;
27505;SDS011;14939;43.596;1.320;2022-10-31T08:54:20;22.15;;;9.43;;
27505;SDS011;14939;43.596;1.320;2022-10-31T08:56:46;27.88;;;8.98;;
27505;SDS011;14939;43.596;1.320;2022-10-31T08:59:11;31.73;;;9.23;;
27505;SDS011;14939;43.596;1.320;2022-10-31T09:01:37;29.67;;;8.88;;
27505;SDS011;14939;43.596;1.320;2022-10-31T09:04:03;25.20;;;8.77;;
27505;SDS011;14939;43.596;1.320;2022-10-31T09:06:28;23.55;;;8.50;;
27505;SDS011;14939;43.596;1.320;2022-10-31T09:08:54;26.38;;;8.93;;
27505;SDS011;14939;43.596;1.320;2022-10-31T09:11:20;22.63;;;8.18;;
27505;SDS011;14939;43.596;1.320;2022-10-31T09:13:45;24.95;;;8.95;;
27505;SDS011;14939;43.596;1.320;2022-10-31T09:16:11;18.60;;;8.20;;
27505;SDS011;14939;43.596;1.320;2022-10-31T09:18:36;26.70;;;8.45;;
27505;SDS011;14939;43.596;1.320;2022-10-31T09:21:02;25.95;;;7.55;;
27505;SDS011;14939;43.596;1.320;2022-10-31T09:23:28;24.92;;;8.20;;
27505;SDS011;14939;43.596;1.320;2022-10-31T09:25:54;23.85;;;7.75;;
27505;SDS011;14939;43.596;1.320;2022-10-31T09:28:21;27.25;;;7.88;;
27505;SDS011;14939;43.596;1.320;2022-10-31T09:30:49;24.13;;;8.38;;
27505;SDS011;14939;43.596;1.320;2022-10-31T09:33:17;26.77;;;8.27;;
27505;SDS011;14939;43.596;1.320;2022-10-31T09:35:43;24.50;;;7.65;;
27505;SDS011;14939;43.596;1.320;2022-10-31T09:38:13;22.13;;;7.60;;
27505;SDS011;14939;43.596;1.320;2022-10-31T09:40:45;23.42;;;8.13;;
27505;SDS011;14939;43.596;1.320;2022-10-31T09:48:37;20.20;;;8.70;;
27505;SDS011;14939;43.596;1.320;2022-10-31T09:51:15;23.50;;;7.28;;
27505;SDS011;14939;43.596;1.320;2022-10-31T09:56:20;17.05;;;6.80;;
27505;SDS011;14939;43.596;1.320;2022-10-31T09:58:58;20.25;;;7.50;;
27505;SDS011;14939;43.596;1.320;2022-10-31T10:04:03;20.30;;;7.30;;
27505;SDS011;14939;43.596;1.320;2022-10-31T10:06:41;20.67;;;7.82;;
27505;SDS011;14939;43.596;1.320;2022-10-31T10:09:10;25.70;;;7.30;;
27505;SDS011;14939;43.596;1.320;2022-10-31T10:14:41;27.27;;;7.50;;
27505;SDS011;14939;43.596;1.320;2022-10-31T10:17:35;20.85;;;8.05;;
27505;SDS011;14939;43.596;1.320;2022-10-31T10:20:10;22.80;;;6.95;;
27505;SDS011;14939;43.596;1.320;2022-10-31T10:25:45;19.67;;;6.80;;
27505;SDS011;14939;43.596;1.320;2022-10-31T10:28:20;22.20;;;7.15;;
27505;SDS011;14939;43.596;1.320;2022-10-31T10:33:19;17.45;;;6.90;;
27505;SDS011;14939;43.596;1.320;2022-10-31T10:41:15;24.58;;;6.38;;
27505;SDS011;14939;43.596;1.320;2022-10-31T10:43:43;20.02;;;6.32;;
27505;SDS011;14939;43.596;1.320;2022-10-31T10:52:04;23.92;;;6.47;;
27505;SDS011;14939;43.596;1.320;2022-10-31T10:57:19;19.42;;;5.93;;
27505;SDS011;14939;43.596;1.320;2022-10-31T10:59:51;21.92;;;6.38;;
27505;SDS011;14939;43.596;1.320;2022-10-31T11:02:23;18.33;;;6.10;;
27505;SDS011;14939;43.596;1.320;2022-10-31T11:04:57;19.52;;;5.93;;
27505;SDS011;14939;43.596;1.320;2022-10-31T11:07:25;14.32;;;5.28;;
27505;SDS011;14939;43.596;1.320;2022-10-31T11:10:03;16.83;;;5.60;;
27505;SDS011;14939;43.596;1.320;2022-10-31T11:12:33;22.20;;;6.18;;
27505;SDS011;14939;43.596;1.320;2022-10-31T11:14:59;17.30;;;5.63;;
27505;SDS011;14939;43.596;1.320;2022-10-31T11:17:32;21.30;;;5.88;;
27505;SDS011;14939;43.596;1.320;2022-10-31T11:20:00;19.00;;;6.20;;
27505;SDS011;14939;43.596;1.320;2022-10-31T11:22:27;19.50;;;5.95;;
27505;SDS011;14939;43.596;1.320;2022-10-31T11:24:53;17.27;;;5.57;;
27505;SDS011;14939;43.596;1.320;2022-10-31T11:27:22;18.58;;;5.70;;
27505;SDS011;14939;43.596;1.320;2022-10-31T11:29:49;18.25;;;5.82;;
27505;SDS011;14939;43.596;1.320;2022-10-31T11:32:25;19.20;;;5.80;;
27505;SDS011;14939;43.596;1.320;2022-10-31T11:34:53;17.10;;;6.30;;
27505;SDS011;14939;43.596;1.320;2022-10-31T11:37:24;21.98;;;5.97;;
27505;SDS011;14939;43.596;1.320;2022-10-31T11:40:02;22.40;;;6.15;;
27505;SDS011;14939;43.596;1.320;2022-10-31T11:42:39;19.50;;;6.60;;
27505;SDS011;14939;43.596;1.320;2022-10-31T11:45:12;22.65;;;6.55;;
27505;SDS011;14939;43.596;1.320;2022-10-31T11:47:41;15.07;;;5.25;;
27505;SDS011;14939;43.596;1.320;2022-10-31T11:50:11;13.38;;;5.43;;
27505;SDS011;14939;43.596;1.320;2022-10-31T11:55:37;22.33;;;5.15;;
27505;SDS011;14939;43.596;1.320;2022-10-31T11:58:04;17.30;;;5.00;;
27505;SDS011;14939;43.596;1.320;2022-10-31T12:00:49;18.80;;;5.38;;
27505;SDS011;14939;43.596;1.320;2022-10-31T12:08:44;17.08;;;5.18;;
27505;SDS011;14939;43.596;1.320;2022-10-31T12:16:40;15.48;;;5.65;;
27505;SDS011;14939;43.596;1.320;2022-10-31T12:22:16;18.05;;;5.97;;
27505;SDS011;14939;43.596;1.320;2022-10-31T12:27:25;18.80;;;5.75;;
27505;SDS011;14939;43.596;1.320;2022-10-31T12:30:14;15.95;;;6.20;;
27505;SDS011;14939;43.596;1.320;2022-10-31T12:35:44;17.30;;;5.93;;
27505;SDS011;14939;43.596;1.320;2022-10-31T12:38:15;22.33;;;5.78;;
27505;SDS011;14939;43.596;1.320;2022-10-31T12:57:52;18.77;;;5.97;;
27505;SDS011;14939;43.596;1.320;2022-10-31T13:00:23;23.52;;;6.28;;
27505;SDS011;14939;43.596;1.320;2022-10-31T13:02:56;17.48;;;5.80;;
27505;SDS011;14939;43.596;1.320;2022-10-31T13:07:57;17.92;;;5.70;;
27505;SDS011;14939;43.596;1.320;2022-10-31T13:15:55;16.90;;;5.75;;
27505;SDS011;14939;43.596;1.320;2022-10-31T13:18:31;15.20;;;5.38;;
27505;SDS011;14939;43.596;1.320;2022-10-31T13:21:02;18.98;;;5.82;;
27505;SDS011;14939;43.596;1.320;2022-10-31T13:23:34;13.40;;;5.50;;
27505;SDS011;14939;43.596;1.320;2022-10-31T13:26:03;18.30;;;5.47;;
27505;SDS011;14939;43.596;1.320;2022-10-31T13:28:37;20.38;;;6.00;;
27505;SDS011;14939;43.596;1.320;2022-10-31T13:31:06;18.00;;;5.97;;
27505;SDS011;14939;43.596;1.320;2022-10-31T13:33:33;21.20;;;5.65;;
27505;SDS011;14939;43.596;1.320;2022-10-31T13:38:53;21.17;;;6.18;;
27505;SDS011;14939;43.596;1.320;2022-10-31T13:41:38;13.10;;;5.55;;
27505;SDS011;14939;43.596;1.320;2022-10-31T13:46:40;15.52;;;5.88;;
27505;SDS011;14939;43.596;1.320;2022-10-31T13:54:51;15.55;;;5.80;;
27505;SDS011;14939;43.596;1.320;2022-10-31T14:02:55;16.25;;;6.03;;
27505;SDS011;14939;43.596;1.320;2022-10-31T14:05:26;18.30;;;6.00;;
27505;SDS011;14939;43.596;1.320;2022-10-31T14:07:56;19.25;;;6.00;;
27505;SDS011;14939;43.596;1.320;2022-10-31T14:12:53;20.00;;;5.95;;
27505;SDS011;14939;43.596;1.320;2022-10-31T14:15:41;15.95;;;6.20;;
27505;SDS011;14939;43.596;1.320;2022-10-31T14:18:21;18.38;;;5.60;;
27505;SDS011;14939;43.596;1.320;2022-10-31T14:20:54;21.83;;;5.80;;
27505;SDS011;14939;43.596;1.320;2022-10-31T14:28:51;14.20;;;6.18;;
27505;SDS011;14939;43.596;1.320;2022-10-31T14:31:31;15.50;;;6.05;;
27505;SDS011;14939;43.596;1.320;2022-10-31T14:37:03;16.05;;;5.57;;
27505;SDS011;14939;43.596;1.320;2022-10-31T14:39:49;17.95;;;6.20;;
27505;SDS011;14939;43.596;1.320;2022-10-31T14:45:20;20.30;;;6.40;;
27505;SDS011;14939;43.596;1.320;2022-10-31T14:50:43;21.08;;;6.55;;
27505;SDS011;14939;43.596;1.320;2022-10-31T14:53:33;19.55;;;6.38;;
27505;SDS011;14939;43.596;1.320;2022-10-31T14:56:01;15.10;;;6.07;;
27505;SDS011;14939;43.596;1.320;2022-10-31T15:01:05;20.95;;;6.40;;
27505;SDS011;14939;43.596;1.320;2022-10-31T15:03:42;17.50;;;6.55;;
27505;SDS011;14939;43.596;1.320;2022-10-31T15:06:12;18.13;;;6.10;;
27505;SDS011;14939;43.596;1.320;2022-10-31T15:08:45;18.73;;;5.88;;
27505;SDS011;14939;43.596;1.320;2022-10-31T15:11:13;17.10;;;6.25;;
27505;SDS011;14939;43.596;1.320;2022-10-31T15:13:41;21.08;;;6.20;;
27505;SDS011;14939;43.596;1.320;2022-10-31T15:16:09;22.20;;;6.55;;
27505;SDS011;14939;43.596;1.320;2022-10-31T15:18:36;20.85;;;6.63;;
27505;SDS011;14939;43.596;1.320;2022-10-31T15:21:11;19.08;;;7.43;;
27505;SDS011;14939;43.596;1.320;2022-10-31T15:23:41;22.08;;;6.55;;
27505;SDS011;14939;43.596;1.320;2022-10-31T15:26:11;18.85;;;6.20;;
27505;SDS011;14939;43.596;1.320;2022-10-31T15:28:42;19.55;;;6.00;;
27505;SDS011;14939;43.596;1.320;2022-10-31T15:31:17;19.13;;;6.43;;
27505;SDS011;14939;43.596;1.320;2022-10-31T15:33:45;32.90;;;6.93;;
27505;SDS011;14939;43.596;1.320;2022-10-31T15:36:21;16.30;;;6.35;;
27505;SDS011;14939;43.596;1.320;2022-10-31T15:38:51;15.70;;;5.63;;
27505;SDS011;14939;43.596;1.320;2022-10-31T15:44:00;19.77;;;6.80;;
27505;SDS011;14939;43.596;1.320;2022-10-31T15:46:37;23.25;;;6.57;;
27505;SDS011;14939;43.596;1.320;2022-10-31T15:49:03;20.83;;;6.78;;
27505;SDS011;14939;43.596;1.320;2022-10-31T15:51:32;22.40;;;6.93;;
27505;SDS011;14939;43.596;1.320;2022-10-31T15:53:59;19.60;;;6.32;;
27505;SDS011;14939;43.596;1.320;2022-10-31T15:56:27;22.80;;;7.00;;
27505;SDS011;14939;43.596;1.320;2022-10-31T15:58:56;19.00;;;7.10;;
27505;SDS011;14939;43.596;1.320;2022-10-31T16:06:26;20.42;;;6.75;;
27505;SDS011;14939;43.596;1.320;2022-10-31T16:08:52;18.60;;;6.60;;
27505;SDS011;14939;43.596;1.320;2022-10-31T16:16:18;17.92;;;6.80;;
27505;SDS011;14939;43.596;1.320;2022-10-31T16:18:45;21.58;;;7.20;;
27505;SDS011;14939;43.596;1.320;2022-10-31T16:21:12;21.88;;;6.70;;
27505;SDS011;14939;43.596;1.320;2022-10-31T16:23:39;19.83;;;7.20;;
27505;SDS011;14939;43.596;1.320;2022-10-31T16:26:14;21.33;;;7.15;;
27505;SDS011;14939;43.596;1.320;2022-10-31T16:28:50;21.48;;;7.20;;
27505;SDS011;14939;43.596;1.320;2022-10-31T16:31:24;21.00;;;6.60;;
27505;SDS011;14939;43.596;1.320;2022-10-31T16:36:50;17.10;;;6.90;;
27505;SDS011;14939;43.596;1.320;2022-10-31T16:39:16;25.83;;;7.07;;
27505;SDS011;14939;43.596;1.320;2022-10-31T16:41:43;21.58;;;6.78;;
27505;SDS011;14939;43.596;1.320;2022-10-31T16:46:42;20.13;;;7.33;;
27505;SDS011;14939;43.596;1.320;2022-10-31T16:49:09;17.77;;;7.28;;
27505;SDS011;14939;43.596;1.320;2022-10-31T16:51:35;18.58;;;6.90;;
27505;SDS011;14939;43.596;1.320;2022-10-31T16:54:00;19.42;;;6.70;;
27505;SDS011;14939;43.596;1.320;2022-10-31T16:56:30;17.75;;;7.07;;
27505;SDS011;14939;43.596;1.320;2022-10-31T16:59:00;29.13;;;7.18;;
27505;SDS011;14939;43.596;1.320;2022-10-31T17:01:29;19.48;;;6.70;;
27505;SDS011;14939;43.596;1.320;2022-10-31T17:03:56;23.85;;;7.38;;
27505;SDS011;14939;43.596;1.320;2022-10-31T17:06:22;27.05;;;7.38;;
27505;SDS011;14939;43.596;1.320;2022-10-31T17:08:47;19.38;;;7.28;;
27505;SDS011;14939;43.596;1.320;2022-10-31T17:11:14;21.55;;;10.10;;
27505;SDS011;14939;43.596;1.320;2022-10-31T17:13:43;24.70;;;7.78;;
27505;SDS011;14939;43.596;1.320;2022-10-31T17:16:09;16.65;;;7.60;;
27505;SDS011;14939;43.596;1.320;2022-10-31T17:18:38;23.23;;;7.10;;
27505;SDS011;14939;43.596;1.320;2022-10-31T17:21:04;23.55;;;8.38;;
27505;SDS011;14939;43.596;1.320;2022-10-31T17:23:30;22.48;;;7.90;;
27505;SDS011;14939;43.596;1.320;2022-10-31T17:25:57;22.73;;;9.63;;